Traveller — PHAM — position and weather

sailwx.info

Track history (hours):
 
Tides and Currents Weather Stations Pressure Air Temp Water Temp Dewpoint Dewpoint Depression Visibility Wind Speed Wind Dir Waves Ship Positions

Traveller

Last reported at 2016-Jul-27 22:23 UTC. Time now 2016-Jul-28 14:33 UTC.
Position N 32°00' W 010°25'.

Length 101 m; beam 20 m.

Type: Ship. MMSI: 246111000.

Date/timePositionNaut miles runAvg speedWind from/ knotsBaromVisibWave heightAir tempDewpointWater temp
2016-Jul-27 22:23N 32°00' W 010°25'810.3
2016-Jul-27 21:33N 31°53' W 010°31'13 9.7
2016-Jul-27 20:12N 31°42' W 010°39'9 9.2
2016-Jul-27 19:10N 31°34' W 010°45'6 9.8
2016-Jul-27 18:31N 31°29' W 010°49'1010.3
2016-Jul-27 17:33N 31°21' W 010°56'1110.8
2016-Jul-27 16:33N 31°12' W 011°03'1110.6
2016-Jul-27 15:31N 31°03' W 011°11'1210.2
2016-Jul-27 14:20N 30°53' W 011°19'810.2
2016-Jul-27 13:33N 30°47' W 011°24'1010.1
2016-Jul-27 12:33N 30°38' W 011°31'1210.3
2016-Jul-27 11:23N 30°28' W 011°39'910.4
2016-Jul-27 10:32N 30°21' W 011°45'1010.2
2016-Jul-27 09:33N 30°13' W 011°51'1110.6
2016-Jul-27 08:33N 30°04' W 011°57'1110.7
2016-Jul-27 07:33N 29°55' W 012°04'1111.1
2016-Jul-27 06:33N 29°46' W 012°11'1211.6
2016-Jul-27 05:33N 29°36' W 012°19'1212.1
2016-Jul-27 04:33N 29°26' W 012°27'1212.1
2016-Jul-27 03:33N 29°16' W 012°35'1312.6
2016-Jul-27 02:33N 29°06' W 012°44'1312.7
2016-Jul-27 01:33N 28°56' W 012°52'1312.6
2016-Jul-27 00:33N 28°45' W 013°00'1312.9
2016-Jul-26 23:33N 28°35' W 013°08'1413.1
2016-Jul-26 22:30N 28°23' W 013°16'1212.7
2016-Jul-26 21:33N 28°13' W 013°24'1212.3
2016-Jul-26 20:33N 28°02' W 013°31'1312.4
2016-Jul-26 19:31N 27°52' W 013°39'1212.8
2016-Jul-26 18:33N 27°41' W 013°47'1313.5
2016-Jul-26 17:33N 27°30' W 013°54'1413.5
2016-Jul-26 16:33N 27°18' W 014°02'1413.8
2016-Jul-26 15:34N 27°06' W 014°10'  
Track history (hours):
 
Tides and Currents Weather Stations Pressure Air Temp Water Temp Dewpoint Dewpoint Depression Visibility Wind Speed Wind Dir Waves Ship Positions

Traveller

Last reported at 2016-Jul-27 22:23 UTC. Time now 2016-Jul-28 14:33 UTC.
Position N 32°00' W 010°25'.

Length 101 m; beam 20 m.

Type: Ship. MMSI: 246111000.

Date/timePositionNaut miles runAvg speedWind from/ knotsBaromVisibWave heightAir tempDewpointWater temp
2016-Jul-27 22:23N 32°00' W 010°25'810.3
2016-Jul-27 21:33N 31°53' W 010°31'13 9.7
2016-Jul-27 20:12N 31°42' W 010°39'9 9.2
2016-Jul-27 19:10N 31°34' W 010°45'6 9.8
2016-Jul-27 18:31N 31°29' W 010°49'1010.3
2016-Jul-27 17:33N 31°21' W 010°56'1110.8
2016-Jul-27 16:33N 31°12' W 011°03'1110.6
2016-Jul-27 15:31N 31°03' W 011°11'1210.2
2016-Jul-27 14:20N 30°53' W 011°19'810.2
2016-Jul-27 13:33N 30°47' W 011°24'1010.1
2016-Jul-27 12:33N 30°38' W 011°31'1210.3
2016-Jul-27 11:23N 30°28' W 011°39'910.4
2016-Jul-27 10:32N 30°21' W 011°45'1010.2
2016-Jul-27 09:33N 30°13' W 011°51'1110.6
2016-Jul-27 08:33N 30°04' W 011°57'1110.7
2016-Jul-27 07:33N 29°55' W 012°04'1111.1
2016-Jul-27 06:33N 29°46' W 012°11'1211.6
2016-Jul-27 05:33N 29°36' W 012°19'1212.1
2016-Jul-27 04:33N 29°26' W 012°27'1212.1
2016-Jul-27 03:33N 29°16' W 012°35'1312.6
2016-Jul-27 02:33N 29°06' W 012°44'1312.7
2016-Jul-27 01:33N 28°56' W 012°52'1312.6
2016-Jul-27 00:33N 28°45' W 013°00'1312.9
2016-Jul-26 23:33N 28°35' W 013°08'1413.1
2016-Jul-26 22:30N 28°23' W 013°16'1212.7
2016-Jul-26 21:33N 28°13' W 013°24'1212.3
2016-Jul-26 20:33N 28°02' W 013°31'1312.4
2016-Jul-26 19:31N 27°52' W 013°39'1212.8
2016-Jul-26 18:33N 27°41' W 013°47'1313.5
2016-Jul-26 17:33N 27°30' W 013°54'1413.5
2016-Jul-26 16:33N 27°18' W 014°02'1413.8
2016-Jul-26 15:34N 27°06' W 014°10'  

Dump ship's entire track history